Loogootee, IN

12:33 AM EST on December 03, 2016 (GMT -0500)
INDOT | | Change Station

Elev 525 ft 38.66 °N, 86.91 °W | Updated 43 minutes ago

Overcast
Overcast
39.0 °F
Feels Like 39.0 °F
N
1.0
Wind Variable Wind from NW
Gusts 3.0 mph

Today
High -- | Low -- °F
--% Chance of Precip.
Yesterday
High -- | Low -- °F
Precip. -- in
Pressure 30.34 in
Visibility 10.0 miles
Clouds Overcast 3600 ft
Dew Point 33.0 °F
Humidity 77%
Rainfall in
Snow Depth Not available.
7:48 AM 5:26 PM
Waxing Crescent, 12% visible
METAR KDCY 030515Z AUTO 00000KT 10SM OVC036 04/02 A3034 RMK AO2 T00350023
Pressure 30.34 in
Visibility 10.0 miles
Clouds Overcast 3600 ft
Dew Point 33.0 °F
Humidity 77%
Rainfall in
Snow Depth Not available.
7:48 AM 5:26 PM
Waxing Crescent, 12% visible
METAR KDCY 030515Z AUTO 00000KT 10SM OVC036 04/02 A3034 RMK AO2 T00350023

10-Day Weather Forecast

Almanac

Astronomy

Dec. 03, 2016 Rise Set
Actual Time
Civil Twilight
Nautical Twilight
Astronomical Twilight
Moon
Length of Visible Light
Length of Day
Tomorrow will be .
, % of the Moon is Illuminated

Today's Extremes

State Highs State Lows

Community

WunderPhotos

Upload Photos

1,955,413 photos uploaded!

WunderBlog® & News

Nearby

Air Quality

  Air Quality AQ Index Pollutant
Not available.

Snow Depth

Station Depth Elevation

Earthquake Activity

City Distance Mag. Time & Date
Minimum magnitude displayed is 2.5.

Coastal Water Temperatures

Place Temperature

Stations

Nearby Weather Stations

Station Location Temp. Windchill Dew Point Humidity Wind Precip. Elev Updated Type
                   

Watches & Warnings

There are currently no watches in effect.